Time,TemperatureF,DewpointF,PressureIn,WindDirection,WindDirectionDegrees,WindSpeedMPH,WindSpeedGustMPH,Humidity,HourlyPrecipIn,Conditions,Clouds,dailyrainin,SoftwareType,DateUTC
2013-03-31 00:03:00,57.4,55.3,29.62,North,-999,-999.0,-999.0,93,-99.99,,,-99.99,Netatmo,2013-03-30 23:03:00,
2013-03-31 00:13:00,57.2,55.2,29.62,North,-999,-999.0,-999.0,93,-99.99,,,-99.99,Netatmo,2013-03-30 23:13:00,
2013-03-31 00:18:00,57.2,55.2,29.62,North,-999,-999.0,-999.0,93,-99.99,,,-99.99,Netatmo,2013-03-30 23:18:00,
2013-03-31 00:23:00,57.0,55.0,29.62,North,-999,-999.0,-999.0,93,-99.99,,,-99.99,Netatmo,2013-03-30 23:23:00,
2013-03-31 00:28:00,57.0,55.0,29.62,North,-999,-999.0,-999.0,93,-99.99,,,-99.99,Netatmo,2013-03-30 23:28:00,
2013-03-31 00:33:00,57.0,54.7,29.62,North,-999,-999.0,-999.0,92,-99.99,,,-99.99,Netatmo,2013-03-30 23:33:00,
2013-03-31 00:38:00,57.0,54.7,29.62,North,-999,-999.0,-999.0,92,-99.99,,,-99.99,Netatmo,2013-03-30 23:38:00,
2013-03-31 00:48:00,56.8,54.5,29.62,North,-999,-999.0,-999.0,92,-99.99,,,-99.99,Netatmo,2013-03-30 23:48:00,
2013-03-31 00:53:00,56.8,54.5,29.63,North,-999,-999.0,-999.0,92,-99.99,,,-99.99,Netatmo,2013-03-30 23:53:00,
2013-03-31 00:58:00,56.8,54.5,29.63,North,-999,-999.0,-999.0,92,-99.99,,,-99.99,Netatmo,2013-03-30 23:58:00,
2013-03-31 01:03:00,57.0,54.7,29.64,North,-999,-999.0,-999.0,92,-99.99,,,-99.99,Netatmo,2013-03-31 00:03:00,
2013-03-31 01:08:00,57.0,54.7,29.64,North,-999,-999.0,-999.0,92,-99.99,,,-99.99,Netatmo,2013-03-31 00:08:00,
2013-03-31 01:11:00,56.8,54.2,29.63,North,-999,-999.0,-999.0,91,-99.99,,,-99.99,Netatmo,2013-03-31 00:11:00,
2013-03-31 01:18:00,56.8,54.2,29.63,North,-999,-999.0,-999.0,91,-99.99,,,-99.99,Netatmo,2013-03-31 00:18:00,
2013-03-31 01:22:00,56.8,54.2,29.63,North,-999,-999.0,-999.0,91,-99.99,,,-99.99,Netatmo,2013-03-31 00:22:00,
2013-03-31 01:28:00,56.8,54.2,29.63,North,-999,-999.0,-999.0,91,-99.99,,,-99.99,Netatmo,2013-03-31 00:28:00,
2013-03-31 01:32:00,56.7,53.7,29.64,North,-999,-999.0,-999.0,90,-99.99,,,-99.99,Netatmo,2013-03-31 00:32:00,
2013-03-31 01:38:00,56.7,53.7,29.64,North,-999,-999.0,-999.0,90,-99.99,,,-99.99,Netatmo,2013-03-31 00:38:00,
2013-03-31 01:42:00,56.7,53.7,29.63,North,-999,-999.0,-999.0,90,-99.99,,,-99.99,Netatmo,2013-03-31 00:42:00,
2013-03-31 01:48:00,56.7,53.7,29.63,North,-999,-999.0,-999.0,90,-99.99,,,-99.99,Netatmo,2013-03-31 00:48:00,
2013-03-31 08:43:00,54.3,50.8,29.65,North,-999,-999.0,-999.0,88,-99.99,,,-99.99,Netatmo,2013-03-31 06:43:00,
2013-03-31 08:48:00,54.3,51.1,29.66,North,-999,-999.0,-999.0,89,-99.99,,,-99.99,Netatmo,2013-03-31 06:48:00,
2013-03-31 08:53:00,54.3,51.1,29.66,North,-999,-999.0,-999.0,89,-99.99,,,-99.99,Netatmo,2013-03-31 06:53:00,
2013-03-31 08:55:00,54.1,50.9,29.65,North,-999,-999.0,-999.0,89,-99.99,,,-99.99,Netatmo,2013-03-31 06:55:00,
2013-03-31 08:58:00,54.1,50.9,29.65,North,-999,-999.0,-999.0,89,-99.99,,,-99.99,Netatmo,2013-03-31 06:58:00,
2013-03-31 09:03:00,54.1,50.9,29.65,North,-999,-999.0,-999.0,89,-99.99,,,-99.99,Netatmo,2013-03-31 07:03:00,
2013-03-31 09:15:00,54.9,51.4,29.65,North,-999,-999.0,-999.0,88,-99.99,,,-99.99,Netatmo,2013-03-31 07:15:00,
2013-03-31 09:23:00,54.9,51.4,29.65,North,-999,-999.0,-999.0,88,-99.99,,,-99.99,Netatmo,2013-03-31 07:23:00,
2013-03-31 09:58:00,55.6,51.5,29.67,North,-999,-999.0,-999.0,86,-99.99,,,-99.99,Netatmo,2013-03-31 07:58:00,
2013-03-31 10:03:00,56.1,51.7,29.67,North,-999,-999.0,-999.0,85,-99.99,,,-99.99,Netatmo,2013-03-31 08:03:00,
2013-03-31 10:08:00,56.1,51.7,29.67,North,-999,-999.0,-999.0,85,-99.99,,,-99.99,Netatmo,2013-03-31 08:08:00,
2013-03-31 10:18:00,56.3,51.5,29.67,North,-999,-999.0,-999.0,84,-99.99,,,-99.99,Netatmo,2013-03-31 08:18:00,
2013-03-31 10:23:00,56.7,51.6,29.67,North,-999,-999.0,-999.0,83,-99.99,,,-99.99,Netatmo,2013-03-31 08:23:00,
2013-03-31 10:28:00,56.7,51.6,29.67,North,-999,-999.0,-999.0,83,-99.99,,,-99.99,Netatmo,2013-03-31 08:28:00,
2013-03-31 10:33:00,57.0,51.3,29.67,North,-999,-999.0,-999.0,81,-99.99,,,-99.99,Netatmo,2013-03-31 08:33:00,
2013-03-31 10:38:00,57.0,51.3,29.67,North,-999,-999.0,-999.0,81,-99.99,,,-99.99,Netatmo,2013-03-31 08:38:00,
2013-03-31 10:43:00,57.2,51.5,29.68,North,-999,-999.0,-999.0,81,-99.99,,,-99.99,Netatmo,2013-03-31 08:43:00,
2013-03-31 10:48:00,57.2,51.5,29.68,North,-999,-999.0,-999.0,81,-99.99,,,-99.99,Netatmo,2013-03-31 08:48:00,
2013-03-31 10:53:00,56.7,50.9,29.69,North,-999,-999.0,-999.0,81,-99.99,,,-99.99,Netatmo,2013-03-31 08:53:00,
2013-03-31 10:58:00,56.7,50.9,29.69,North,-999,-999.0,-999.0,81,-99.99,,,-99.99,Netatmo,2013-03-31 08:58:00,
2013-03-31 11:03:00,56.3,50.6,29.68,North,-999,-999.0,-999.0,81,-99.99,,,-99.99,Netatmo,2013-03-31 09:03:00,
2013-03-31 11:08:00,56.3,50.6,29.68,North,-999,-999.0,-999.0,81,-99.99,,,-99.99,Netatmo,2013-03-31 09:08:00,
2013-03-31 11:13:00,56.7,50.6,29.69,North,-999,-999.0,-999.0,80,-99.99,,,-99.99,Netatmo,2013-03-31 09:13:00,
2013-03-31 11:18:00,56.7,50.6,29.69,North,-999,-999.0,-999.0,80,-99.99,,,-99.99,Netatmo,2013-03-31 09:18:00,
2013-03-31 11:23:00,56.8,50.8,29.69,North,-999,-999.0,-999.0,80,-99.99,,,-99.99,Netatmo,2013-03-31 09:23:00,
2013-03-31 11:28:00,56.8,50.8,29.69,North,-999,-999.0,-999.0,80,-99.99,,,-99.99,Netatmo,2013-03-31 09:28:00,
2013-03-31 11:33:00,57.2,51.1,29.69,North,-999,-999.0,-999.0,80,-99.99,,,-99.99,Netatmo,2013-03-31 09:33:00,
2013-03-31 11:38:00,57.2,51.1,29.69,North,-999,-999.0,-999.0,80,-99.99,,,-99.99,Netatmo,2013-03-31 09:38:00,
2013-03-31 11:43:00,57.0,50.6,29.70,North,-999,-999.0,-999.0,79,-99.99,,,-99.99,Netatmo,2013-03-31 09:43:00,
2013-03-31 11:48:00,57.0,50.6,29.70,North,-999,-999.0,-999.0,79,-99.99,,,-99.99,Netatmo,2013-03-31 09:48:00,
2013-03-31 11:53:00,56.7,50.3,29.70,North,-999,-999.0,-999.0,79,-99.99,,,-99.99,Netatmo,2013-03-31 09:53:00,
2013-03-31 11:58:00,56.7,50.3,29.70,North,-999,-999.0,-999.0,79,-99.99,,,-99.99,Netatmo,2013-03-31 09:58:00,
2013-03-31 12:03:00,56.8,50.8,29.70,North,-999,-999.0,-999.0,80,-99.99,,,-99.99,Netatmo,2013-03-31 10:03:00,
2013-03-31 12:08:00,56.8,50.8,29.70,North,-999,-999.0,-999.0,80,-99.99,,,-99.99,Netatmo,2013-03-31 10:08:00,
2013-03-31 12:13:00,57.0,51.0,29.70,North,-999,-999.0,-999.0,80,-99.99,,,-99.99,Netatmo,2013-03-31 10:13:00,
2013-03-31 12:18:00,57.0,51.0,29.70,North,-999,-999.0,-999.0,80,-99.99,,,-99.99,Netatmo,2013-03-31 10:18:00,
2013-03-31 12:23:00,57.4,51.0,29.71,North,-999,-999.0,-999.0,79,-99.99,,,-99.99,Netatmo,2013-03-31 10:23:00,
2013-03-31 12:33:00,57.0,50.6,29.72,North,-999,-999.0,-999.0,79,-99.99,,,-99.99,Netatmo,2013-03-31 10:33:00,
2013-03-31 12:38:00,57.0,50.6,29.72,North,-999,-999.0,-999.0,79,-99.99,,,-99.99,Netatmo,2013-03-31 10:38:00,
2013-03-31 12:43:00,56.1,50.4,29.72,North,-999,-999.0,-999.0,81,-99.99,,,-99.99,Netatmo,2013-03-31 10:43:00,
2013-03-31 12:48:00,56.1,50.4,29.72,North,-999,-999.0,-999.0,81,-99.99,,,-99.99,Netatmo,2013-03-31 10:48:00,
2013-03-31 12:53:00,55.6,50.2,29.72,North,-999,-999.0,-999.0,82,-99.99,,,-99.99,Netatmo,2013-03-31 10:53:00,
2013-03-31 12:58:00,55.6,50.2,29.72,North,-999,-999.0,-999.0,82,-99.99,,,-99.99,Netatmo,2013-03-31 10:58:00,
2013-03-31 13:03:00,55.9,50.6,29.73,North,-999,-999.0,-999.0,82,-99.99,,,-99.99,Netatmo,2013-03-31 11:03:00,
2013-03-31 13:08:00,55.9,50.6,29.73,North,-999,-999.0,-999.0,82,-99.99,,,-99.99,Netatmo,2013-03-31 11:08:00,
2013-03-31 13:13:00,56.5,51.1,29.73,North,-999,-999.0,-999.0,82,-99.99,,,-99.99,Netatmo,2013-03-31 11:13:00,
2013-03-31 13:18:00,56.5,51.1,29.73,North,-999,-999.0,-999.0,82,-99.99,,,-99.99,Netatmo,2013-03-31 11:18:00,
2013-03-31 13:22:00,57.2,50.8,29.74,North,-999,-999.0,-999.0,79,-99.99,,,-99.99,Netatmo,2013-03-31 11:22:00,
2013-03-31 13:23:00,57.2,50.8,29.74,North,-999,-999.0,-999.0,79,-99.99,,,-99.99,Netatmo,2013-03-31 11:23:00,
2013-03-31 13:28:00,57.2,50.8,29.74,North,-999,-999.0,-999.0,79,-99.99,,,-99.99,Netatmo,2013-03-31 11:28:00,
2013-03-31 13:57:00,57.0,50.0,29.75,North,-999,-999.0,-999.0,77,-99.99,,,-99.99,Netatmo,2013-03-31 11:57:00,
2013-03-31 14:03:00,57.0,50.0,29.75,North,-999,-999.0,-999.0,77,-99.99,,,-99.99,Netatmo,2013-03-31 12:03:00,
2013-03-31 14:07:00,57.0,50.0,29.75,North,-999,-999.0,-999.0,77,-99.99,,,-99.99,Netatmo,2013-03-31 12:07:00,
2013-03-31 14:13:00,57.0,50.0,29.75,North,-999,-999.0,-999.0,77,-99.99,,,-99.99,Netatmo,2013-03-31 12:13:00,
2013-03-31 14:18:00,57.2,49.8,29.75,North,-999,-999.0,-999.0,76,-99.99,,,-99.99,Netatmo,2013-03-31 12:18:00,
2013-03-31 14:23:00,57.2,49.8,29.75,North,-999,-999.0,-999.0,76,-99.99,,,-99.99,Netatmo,2013-03-31 12:23:00,
2013-03-31 14:28:00,57.4,48.9,29.75,North,-999,-999.0,-999.0,73,-99.99,,,-99.99,Netatmo,2013-03-31 12:28:00,
2013-03-31 14:33:00,57.4,48.9,29.75,North,-999,-999.0,-999.0,73,-99.99,,,-99.99,Netatmo,2013-03-31 12:33:00,
2013-03-31 14:43:00,57.4,48.5,29.75,North,-999,-999.0,-999.0,72,-99.99,,,-99.99,Netatmo,2013-03-31 12:43:00,
2013-03-31 14:47:00,57.9,48.7,29.76,North,-999,-999.0,-999.0,71,-99.99,,,-99.99,Netatmo,2013-03-31 12:47:00,
2013-03-31 14:48:00,57.4,48.5,29.75,North,-999,-999.0,-999.0,72,-99.99,,,-99.99,Netatmo,2013-03-31 12:48:00,
2013-03-31 14:53:00,57.9,48.7,29.76,North,-999,-999.0,-999.0,71,-99.99,,,-99.99,Netatmo,2013-03-31 12:53:00,
2013-03-31 14:58:00,58.3,49.4,29.76,North,-999,-999.0,-999.0,72,-99.99,,,-99.99,Netatmo,2013-03-31 12:58:00,
2013-03-31 15:03:00,58.3,49.4,29.76,North,-999,-999.0,-999.0,72,-99.99,,,-99.99,Netatmo,2013-03-31 13:03:00,
2013-03-31 15:13:00,58.6,49.8,29.76,North,-999,-999.0,-999.0,72,-99.99,,,-99.99,Netatmo,2013-03-31 13:13:00,
2013-03-31 15:18:00,58.6,49.8,29.76,North,-999,-999.0,-999.0,72,-99.99,,,-99.99,Netatmo,2013-03-31 13:18:00,
2013-03-31 15:23:00,58.6,50.1,29.76,North,-999,-999.0,-999.0,73,-99.99,,,-99.99,Netatmo,2013-03-31 13:23:00,
2013-03-31 15:28:00,58.6,50.1,29.76,North,-999,-999.0,-999.0,73,-99.99,,,-99.99,Netatmo,2013-03-31 13:28:00,
2013-03-31 15:33:00,58.6,50.1,29.76,North,-999,-999.0,-999.0,73,-99.99,,,-99.99,Netatmo,2013-03-31 13:33:00,
2013-03-31 15:38:00,58.8,50.7,29.75,North,-999,-999.0,-999.0,74,-99.99,,,-99.99,Netatmo,2013-03-31 13:38:00,
2013-03-31 15:43:00,58.8,50.7,29.75,North,-999,-999.0,-999.0,74,-99.99,,,-99.99,Netatmo,2013-03-31 13:43:00,
2013-03-31 15:48:00,58.8,50.7,29.75,North,-999,-999.0,-999.0,74,-99.99,,,-99.99,Netatmo,2013-03-31 13:48:00,
2013-03-31 15:58:00,58.6,50.8,29.75,North,-999,-999.0,-999.0,75,-99.99,,,-99.99,Netatmo,2013-03-31 13:58:00,
2013-03-31 16:03:00,58.8,52.0,29.75,North,-999,-999.0,-999.0,78,-99.99,,,-99.99,Netatmo,2013-03-31 14:03:00,
2013-03-31 16:08:00,58.8,52.0,29.75,North,-999,-999.0,-999.0,78,-99.99,,,-99.99,Netatmo,2013-03-31 14:08:00,
2013-03-31 16:18:00,59.0,52.9,29.75,North,-999,-999.0,-999.0,80,-99.99,,,-99.99,Netatmo,2013-03-31 14:18:00,
2013-03-31 16:23:00,59.0,52.9,29.75,North,-999,-999.0,-999.0,80,-99.99,,,-99.99,Netatmo,2013-03-31 14:23:00,
2013-03-31 16:28:00,59.0,52.9,29.75,North,-999,-999.0,-999.0,80,-99.99,,,-99.99,Netatmo,2013-03-31 14:28:00,
2013-03-31 16:33:00,59.0,52.9,29.75,North,-999,-999.0,-999.0,80,-99.99,,,-99.99,Netatmo,2013-03-31 14:33:00,
2013-03-31 16:38:00,58.8,52.7,29.75,North,-999,-999.0,-999.0,80,-99.99,,,-99.99,Netatmo,2013-03-31 14:38:00,
2013-03-31 16:43:00,58.8,52.7,29.75,North,-999,-999.0,-999.0,80,-99.99,,,-99.99,Netatmo,2013-03-31 14:43:00,
2013-03-31 16:53:00,58.3,52.2,29.75,North,-999,-999.0,-999.0,80,-99.99,,,-99.99,Netatmo,2013-03-31 14:53:00,
2013-03-31 16:58:00,58.3,52.2,29.75,North,-999,-999.0,-999.0,80,-99.99,,,-99.99,Netatmo,2013-03-31 14:58:00,
2013-03-31 17:03:00,58.1,52.3,29.75,North,-999,-999.0,-999.0,81,-99.99,,,-99.99,Netatmo,2013-03-31 15:03:00,
2013-03-31 17:08:00,58.1,52.3,29.75,North,-999,-999.0,-999.0,81,-99.99,,,-99.99,Netatmo,2013-03-31 15:08:00,
2013-03-31 17:13:00,57.9,52.2,29.75,North,-999,-999.0,-999.0,81,-99.99,,,-99.99,Netatmo,2013-03-31 15:13:00,
2013-03-31 17:18:00,57.9,52.2,29.75,North,-999,-999.0,-999.0,81,-99.99,,,-99.99,Netatmo,2013-03-31 15:18:00,
2013-03-31 17:19:00,57.9,52.5,29.75,North,-999,-999.0,-999.0,82,-99.99,,,-99.99,Netatmo,2013-03-31 15:19:00,
2013-03-31 17:23:00,57.9,52.5,29.75,North,-999,-999.0,-999.0,82,-99.99,,,-99.99,Netatmo,2013-03-31 15:23:00,
2013-03-31 17:28:00,57.9,52.5,29.75,North,-999,-999.0,-999.0,82,-99.99,,,-99.99,Netatmo,2013-03-31 15:28:00,
2013-03-31 17:33:00,58.6,53.2,29.75,North,-999,-999.0,-999.0,82,-99.99,,,-99.99,Netatmo,2013-03-31 15:33:00,
2013-03-31 17:38:00,58.6,53.2,29.75,North,-999,-999.0,-999.0,82,-99.99,,,-99.99,Netatmo,2013-03-31 15:38:00,
2013-03-31 17:43:00,58.6,53.2,29.75,North,-999,-999.0,-999.0,82,-99.99,,,-99.99,Netatmo,2013-03-31 15:43:00,
2013-03-31 17:49:00,59.0,53.5,29.76,North,-999,-999.0,-999.0,82,-99.99,,,-99.99,Netatmo,2013-03-31 15:49:00,
2013-03-31 17:53:00,59.0,53.5,29.76,North,-999,-999.0,-999.0,82,-99.99,,,-99.99,Netatmo,2013-03-31 15:53:00,
2013-03-31 17:58:00,59.0,53.5,29.76,North,-999,-999.0,-999.0,82,-99.99,,,-99.99,Netatmo,2013-03-31 15:58:00,
2013-03-31 18:13:00,59.2,53.4,29.75,North,-999,-999.0,-999.0,81,-99.99,,,-99.99,Netatmo,2013-03-31 16:13:00,
2013-03-31 18:23:00,59.2,53.4,29.75,North,-999,-999.0,-999.0,81,-99.99,,,-99.99,Netatmo,2013-03-31 16:23:00,
2013-03-31 18:24:00,58.6,52.9,29.75,North,-999,-999.0,-999.0,81,-99.99,,,-99.99,Netatmo,2013-03-31 16:24:00,
2013-03-31 18:33:00,58.6,52.9,29.75,North,-999,-999.0,-999.0,81,-99.99,,,-99.99,Netatmo,2013-03-31 16:33:00,
2013-03-31 18:39:00,58.3,52.5,29.76,North,-999,-999.0,-999.0,81,-99.99,,,-99.99,Netatmo,2013-03-31 16:39:00,
2013-03-31 18:43:00,58.3,52.5,29.76,North,-999,-999.0,-999.0,81,-99.99,,,-99.99,Netatmo,2013-03-31 16:43:00,
2013-03-31 18:48:00,58.3,52.5,29.76,North,-999,-999.0,-999.0,81,-99.99,,,-99.99,Netatmo,2013-03-31 16:48:00,